Atascadero, California
Current Conditions -  °F | °C
As of 4:53 PM on Sunday 21 Dec 2014 (Local Time) from KPRB Reporting Station
Overcast Overcast  
Wind Chill: 17°   Ceiling: 1500
Heat Index: 17°   Visibility: 10mi
Dew Point: 13°   Wind: 8mph
Humidity: 78%   Direction: 340°NNW
Pressure: 30.21"   Gusts: NA
Location:  35.49°N, 120.66°W
Report Text: KPRB 220053Z AUTO 34007KT 10SM BKN015 OVC024 17/13 A3021 RMK AO2 SLP226 T01720133 TSNO
Loading
Personal Weather Stations






























Interactive Weather Map New forecast layout! Learn more

10-Day Weather Forecast

Advertisements
Track Severe Weather on mobile